Queen, Pennsylvania
Current Conditions -  °F | °C
As of 8:53 AM on Tuesday 21 Oct 2014 (Local Time) from KAOO Reporting Station
Overcast Overcast  
Wind Chill: 51°   Ceiling: 2700
Heat Index: 51°   Visibility: 10mi
Dew Point: 48°   Wind: 7mph
Humidity: 89%   Direction: 250°WSW
Pressure: 29.87"   Gusts: NA
Location:  40.26°N, 78.51°W
Report Text: KAOO 211253Z AUTO 25006KT 10SM FEW020 BKN027 OVC036 11/09 A2987 RMK AO2 SLP118 T01060089
Loading
Personal Weather Stations






























Interactive Weather Map
Tropical Storm Tracking
New forecast layout! Learn more

10-Day Weather Forecast

Advertisements
Track Severe Weather on mobile